sensor_id;sensor_type;location;lat;lon;timestamp;P1;durP1;ratioP1;P2;durP2;ratioP2
61391;SDS011;47261;52.892;5.738;2023-08-06T00:02:13;14.10;;;6.97;;
61391;SDS011;47261;52.892;5.738;2023-08-06T00:04:39;13.30;;;7.50;;
61391;SDS011;47261;52.892;5.738;2023-08-06T00:07:04;12.87;;;6.87;;
61391;SDS011;47261;52.892;5.738;2023-08-06T00:09:30;15.82;;;7.88;;
61391;SDS011;47261;52.892;5.738;2023-08-06T00:11:56;15.97;;;8.37;;
61391;SDS011;47261;52.892;5.738;2023-08-06T00:14:21;15.33;;;7.70;;
61391;SDS011;47261;52.892;5.738;2023-08-06T00:16:47;16.17;;;7.97;;
61391;SDS011;47261;52.892;5.738;2023-08-06T00:19:13;15.47;;;8.27;;
61391;SDS011;47261;52.892;5.738;2023-08-06T00:21:38;17.08;;;8.68;;
61391;SDS011;47261;52.892;5.738;2023-08-06T00:24:04;15.03;;;7.93;;
61391;SDS011;47261;52.892;5.738;2023-08-06T00:26:30;16.20;;;9.40;;
61391;SDS011;47261;52.892;5.738;2023-08-06T00:28:55;16.23;;;8.90;;
61391;SDS011;47261;52.892;5.738;2023-08-06T00:31:21;17.92;;;8.68;;
61391;SDS011;47261;52.892;5.738;2023-08-06T00:33:47;17.23;;;9.53;;
61391;SDS011;47261;52.892;5.738;2023-08-06T00:36:12;16.57;;;9.53;;
61391;SDS011;47261;52.892;5.738;2023-08-06T00:38:38;16.10;;;8.98;;
61391;SDS011;47261;52.892;5.738;2023-08-06T00:41:03;18.93;;;9.30;;
61391;SDS011;47261;52.892;5.738;2023-08-06T00:43:29;16.52;;;9.25;;
61391;SDS011;47261;52.892;5.738;2023-08-06T00:45:55;15.97;;;9.03;;
61391;SDS011;47261;52.892;5.738;2023-08-06T00:48:21;19.48;;;9.52;;
61391;SDS011;47261;52.892;5.738;2023-08-06T00:50:47;18.23;;;10.48;;
61391;SDS011;47261;52.892;5.738;2023-08-06T00:53:13;19.50;;;10.43;;
61391;SDS011;47261;52.892;5.738;2023-08-06T00:55:39;17.60;;;9.93;;
61391;SDS011;47261;52.892;5.738;2023-08-06T00:58:05;18.77;;;9.88;;
61391;SDS011;47261;52.892;5.738;2023-08-06T01:00:31;18.20;;;9.60;;
61391;SDS011;47261;52.892;5.738;2023-08-06T01:02:56;15.20;;;8.37;;
61391;SDS011;47261;52.892;5.738;2023-08-06T01:05:22;19.15;;;9.43;;
61391;SDS011;47261;52.892;5.738;2023-08-06T01:10:24;19.52;;;10.02;;
61391;SDS011;47261;52.892;5.738;2023-08-06T01:15:29;19.05;;;10.60;;
61391;SDS011;47261;52.892;5.738;2023-08-06T01:18:00;19.30;;;10.85;;
61391;SDS011;47261;52.892;5.738;2023-08-06T01:20:29;16.08;;;8.77;;
61391;SDS011;47261;52.892;5.738;2023-08-06T01:22:55;16.48;;;10.43;;
61391;SDS011;47261;52.892;5.738;2023-08-06T01:25:21;21.17;;;9.20;;
61391;SDS011;47261;52.892;5.738;2023-08-06T01:28:00;16.42;;;9.55;;
61391;SDS011;47261;52.892;5.738;2023-08-06T01:30:31;17.23;;;10.13;;
61391;SDS011;47261;52.892;5.738;2023-08-06T01:33:04;19.58;;;10.68;;
61391;SDS011;47261;52.892;5.738;2023-08-06T01:35:33;16.23;;;9.35;;
61391;SDS011;47261;52.892;5.738;2023-08-06T01:38:00;18.60;;;10.47;;
61391;SDS011;47261;52.892;5.738;2023-08-06T01:40:27;16.83;;;9.82;;
61391;SDS011;47261;52.892;5.738;2023-08-06T01:42:54;18.48;;;10.40;;
61391;SDS011;47261;52.892;5.738;2023-08-06T01:45:20;16.27;;;9.83;;
61391;SDS011;47261;52.892;5.738;2023-08-06T01:47:46;16.47;;;9.80;;
61391;SDS011;47261;52.892;5.738;2023-08-06T01:50:11;17.43;;;10.27;;
61391;SDS011;47261;52.892;5.738;2023-08-06T01:52:37;15.82;;;9.23;;
61391;SDS011;47261;52.892;5.738;2023-08-06T01:55:03;15.83;;;9.10;;
61391;SDS011;47261;52.892;5.738;2023-08-06T01:57:29;18.88;;;10.10;;
61391;SDS011;47261;52.892;5.738;2023-08-06T01:59:54;19.58;;;10.07;;
61391;SDS011;47261;52.892;5.738;2023-08-06T02:02:20;18.27;;;9.80;;
61391;SDS011;47261;52.892;5.738;2023-08-06T02:04:45;17.30;;;9.90;;
61391;SDS011;47261;52.892;5.738;2023-08-06T02:07:11;18.83;;;10.02;;
61391;SDS011;47261;52.892;5.738;2023-08-06T02:09:37;17.03;;;9.53;;
61391;SDS011;47261;52.892;5.738;2023-08-06T02:12:02;17.40;;;9.95;;
61391;SDS011;47261;52.892;5.738;2023-08-06T02:14:28;24.10;;;9.68;;
61391;SDS011;47261;52.892;5.738;2023-08-06T02:16:54;18.60;;;10.03;;
61391;SDS011;47261;52.892;5.738;2023-08-06T02:19:20;17.98;;;10.52;;
61391;SDS011;47261;52.892;5.738;2023-08-06T02:21:45;18.33;;;10.07;;
61391;SDS011;47261;52.892;5.738;2023-08-06T02:24:11;17.47;;;10.17;;
61391;SDS011;47261;52.892;5.738;2023-08-06T02:26:37;17.73;;;9.52;;
61391;SDS011;47261;52.892;5.738;2023-08-06T02:29:02;20.83;;;10.33;;
61391;SDS011;47261;52.892;5.738;2023-08-06T02:31:28;22.93;;;9.80;;
61391;SDS011;47261;52.892;5.738;2023-08-06T02:33:53;21.07;;;10.20;;
61391;SDS011;47261;52.892;5.738;2023-08-06T02:36:19;16.50;;;8.80;;
61391;SDS011;47261;52.892;5.738;2023-08-06T02:38:45;18.65;;;9.52;;
61391;SDS011;47261;52.892;5.738;2023-08-06T02:41:10;18.27;;;10.20;;
61391;SDS011;47261;52.892;5.738;2023-08-06T02:43:36;16.70;;;9.80;;
61391;SDS011;47261;52.892;5.738;2023-08-06T02:46:01;16.60;;;10.40;;
61391;SDS011;47261;52.892;5.738;2023-08-06T02:48:27;17.65;;;9.73;;
61391;SDS011;47261;52.892;5.738;2023-08-06T02:50:56;18.27;;;10.20;;
61391;SDS011;47261;52.892;5.738;2023-08-06T02:53:24;16.70;;;9.75;;
61391;SDS011;47261;52.892;5.738;2023-08-06T02:55:50;16.65;;;9.95;;
61391;SDS011;47261;52.892;5.738;2023-08-06T02:58:15;20.77;;;10.07;;
61391;SDS011;47261;52.892;5.738;2023-08-06T03:00:42;17.77;;;10.38;;
61391;SDS011;47261;52.892;5.738;2023-08-06T03:03:09;16.30;;;8.60;;
61391;SDS011;47261;52.892;5.738;2023-08-06T03:05:35;18.30;;;9.90;;
61391;SDS011;47261;52.892;5.738;2023-08-06T03:08:00;17.47;;;9.67;;
61391;SDS011;47261;52.892;5.738;2023-08-06T03:10:26;24.87;;;10.50;;
61391;SDS011;47261;52.892;5.738;2023-08-06T03:12:52;17.92;;;9.55;;
61391;SDS011;47261;52.892;5.738;2023-08-06T03:15:17;17.53;;;8.97;;
61391;SDS011;47261;52.892;5.738;2023-08-06T03:17:43;20.30;;;10.20;;
61391;SDS011;47261;52.892;5.738;2023-08-06T03:20:09;18.70;;;10.35;;
61391;SDS011;47261;52.892;5.738;2023-08-06T03:22:35;20.07;;;9.73;;
61391;SDS011;47261;52.892;5.738;2023-08-06T03:25:01;23.00;;;9.40;;
61391;SDS011;47261;52.892;5.738;2023-08-06T03:27:27;18.70;;;10.00;;
61391;SDS011;47261;52.892;5.738;2023-08-06T03:29:52;20.83;;;9.77;;
61391;SDS011;47261;52.892;5.738;2023-08-06T03:32:18;19.27;;;9.83;;
61391;SDS011;47261;52.892;5.738;2023-08-06T03:34:44;20.88;;;9.98;;
61391;SDS011;47261;52.892;5.738;2023-08-06T03:37:09;17.03;;;9.43;;
61391;SDS011;47261;52.892;5.738;2023-08-06T03:39:35;19.42;;;10.45;;
61391;SDS011;47261;52.892;5.738;2023-08-06T03:42:01;23.57;;;10.73;;
61391;SDS011;47261;52.892;5.738;2023-08-06T03:44:26;19.85;;;10.75;;
61391;SDS011;47261;52.892;5.738;2023-08-06T03:46:53;19.10;;;10.15;;
61391;SDS011;47261;52.892;5.738;2023-08-06T03:49:19;19.60;;;10.97;;
61391;SDS011;47261;52.892;5.738;2023-08-06T03:51:44;18.20;;;11.07;;
61391;SDS011;47261;52.892;5.738;2023-08-06T03:54:11;19.90;;;9.83;;
61391;SDS011;47261;52.892;5.738;2023-08-06T03:56:36;19.52;;;10.65;;
61391;SDS011;47261;52.892;5.738;2023-08-06T03:59:02;21.17;;;10.53;;
61391;SDS011;47261;52.892;5.738;2023-08-06T04:01:27;17.90;;;9.70;;
61391;SDS011;47261;52.892;5.738;2023-08-06T04:03:53;19.37;;;10.60;;
61391;SDS011;47261;52.892;5.738;2023-08-06T04:06:19;19.60;;;9.77;;
61391;SDS011;47261;52.892;5.738;2023-08-06T04:08:44;16.93;;;9.43;;
61391;SDS011;47261;52.892;5.738;2023-08-06T04:11:10;17.23;;;10.00;;
61391;SDS011;47261;52.892;5.738;2023-08-06T04:13:37;19.55;;;10.35;;
61391;SDS011;47261;52.892;5.738;2023-08-06T04:16:02;17.50;;;9.98;;
61391;SDS011;47261;52.892;5.738;2023-08-06T04:18:28;19.17;;;9.47;;
61391;SDS011;47261;52.892;5.738;2023-08-06T04:20:54;17.40;;;10.25;;
61391;SDS011;47261;52.892;5.738;2023-08-06T04:23:22;17.80;;;9.20;;
61391;SDS011;47261;52.892;5.738;2023-08-06T04:25:48;20.73;;;10.85;;
61391;SDS011;47261;52.892;5.738;2023-08-06T04:28:13;21.40;;;10.07;;
61391;SDS011;47261;52.892;5.738;2023-08-06T04:30:39;19.60;;;10.57;;
61391;SDS011;47261;52.892;5.738;2023-08-06T04:33:04;17.92;;;10.02;;
61391;SDS011;47261;52.892;5.738;2023-08-06T04:35:30;19.00;;;10.53;;
61391;SDS011;47261;52.892;5.738;2023-08-06T04:37:56;18.00;;;8.98;;
61391;SDS011;47261;52.892;5.738;2023-08-06T04:40:21;17.83;;;9.73;;
61391;SDS011;47261;52.892;5.738;2023-08-06T04:42:47;17.83;;;9.30;;
61391;SDS011;47261;52.892;5.738;2023-08-06T04:45:13;16.35;;;8.48;;
61391;SDS011;47261;52.892;5.738;2023-08-06T04:47:38;17.67;;;9.57;;
61391;SDS011;47261;52.892;5.738;2023-08-06T04:50:04;15.52;;;9.00;;
61391;SDS011;47261;52.892;5.738;2023-08-06T04:52:30;16.73;;;9.40;;
61391;SDS011;47261;52.892;5.738;2023-08-06T04:54:57;18.40;;;8.98;;
61391;SDS011;47261;52.892;5.738;2023-08-06T04:57:23;18.10;;;9.23;;
61391;SDS011;47261;52.892;5.738;2023-08-06T04:59:49;19.00;;;9.13;;
61391;SDS011;47261;52.892;5.738;2023-08-06T05:02:15;18.83;;;9.03;;
61391;SDS011;47261;52.892;5.738;2023-08-06T05:04:40;14.65;;;8.32;;
61391;SDS011;47261;52.892;5.738;2023-08-06T05:07:06;16.53;;;8.70;;
61391;SDS011;47261;52.892;5.738;2023-08-06T05:09:32;18.48;;;8.90;;
61391;SDS011;47261;52.892;5.738;2023-08-06T05:12:00;16.50;;;8.80;;
61391;SDS011;47261;52.892;5.738;2023-08-06T05:14:26;15.27;;;8.40;;
61391;SDS011;47261;52.892;5.738;2023-08-06T05:16:52;16.33;;;9.13;;
61391;SDS011;47261;52.892;5.738;2023-08-06T05:19:17;17.52;;;8.95;;
61391;SDS011;47261;52.892;5.738;2023-08-06T05:21:43;15.10;;;8.37;;
61391;SDS011;47261;52.892;5.738;2023-08-06T05:24:08;16.30;;;8.82;;
61391;SDS011;47261;52.892;5.738;2023-08-06T05:26:34;16.63;;;8.80;;
61391;SDS011;47261;52.892;5.738;2023-08-06T05:29:00;17.55;;;9.90;;
61391;SDS011;47261;52.892;5.738;2023-08-06T05:31:26;17.13;;;8.73;;
61391;SDS011;47261;52.892;5.738;2023-08-06T05:33:53;16.80;;;9.20;;
61391;SDS011;47261;52.892;5.738;2023-08-06T05:36:19;16.45;;;9.63;;
61391;SDS011;47261;52.892;5.738;2023-08-06T05:38:46;17.85;;;9.50;;
61391;SDS011;47261;52.892;5.738;2023-08-06T05:41:12;20.27;;;10.17;;
61391;SDS011;47261;52.892;5.738;2023-08-06T05:43:37;21.08;;;10.88;;
61391;SDS011;47261;52.892;5.738;2023-08-06T05:46:03;20.13;;;10.50;;
61391;SDS011;47261;52.892;5.738;2023-08-06T05:48:29;17.95;;;10.40;;
61391;SDS011;47261;52.892;5.738;2023-08-06T05:50:55;19.98;;;10.38;;
61391;SDS011;47261;52.892;5.738;2023-08-06T05:53:20;20.20;;;10.17;;
61391;SDS011;47261;52.892;5.738;2023-08-06T05:55:46;18.73;;;10.10;;
61391;SDS011;47261;52.892;5.738;2023-08-06T05:58:12;19.23;;;9.82;;
61391;SDS011;47261;52.892;5.738;2023-08-06T06:00:38;18.40;;;9.80;;
61391;SDS011;47261;52.892;5.738;2023-08-06T06:03:03;16.43;;;9.67;;
61391;SDS011;47261;52.892;5.738;2023-08-06T06:05:29;19.57;;;9.20;;
61391;SDS011;47261;52.892;5.738;2023-08-06T06:07:55;15.00;;;9.10;;
61391;SDS011;47261;52.892;5.738;2023-08-06T06:10:20;18.73;;;10.27;;
61391;SDS011;47261;52.892;5.738;2023-08-06T06:12:46;15.95;;;9.75;;
61391;SDS011;47261;52.892;5.738;2023-08-06T06:15:12;16.27;;;9.13;;
61391;SDS011;47261;52.892;5.738;2023-08-06T06:17:37;14.73;;;8.93;;
61391;SDS011;47261;52.892;5.738;2023-08-06T06:20:03;16.10;;;9.10;;
61391;SDS011;47261;52.892;5.738;2023-08-06T06:22:30;14.77;;;9.20;;
61391;SDS011;47261;52.892;5.738;2023-08-06T06:24:55;15.20;;;9.05;;
61391;SDS011;47261;52.892;5.738;2023-08-06T06:27:21;14.00;;;8.70;;
61391;SDS011;47261;52.892;5.738;2023-08-06T06:29:47;14.73;;;8.63;;
61391;SDS011;47261;52.892;5.738;2023-08-06T06:32:12;19.23;;;9.77;;
61391;SDS011;47261;52.892;5.738;2023-08-06T06:34:38;14.82;;;9.32;;
61391;SDS011;47261;52.892;5.738;2023-08-06T06:37:04;17.53;;;9.17;;
61391;SDS011;47261;52.892;5.738;2023-08-06T06:39:30;15.13;;;9.70;;
61391;SDS011;47261;52.892;5.738;2023-08-06T06:41:55;16.93;;;9.50;;
61391;SDS011;47261;52.892;5.738;2023-08-06T06:44:21;15.45;;;9.40;;
61391;SDS011;47261;52.892;5.738;2023-08-06T06:46:47;19.47;;;9.83;;
61391;SDS011;47261;52.892;5.738;2023-08-06T06:49:12;15.15;;;10.65;;
61391;SDS011;47261;52.892;5.738;2023-08-06T06:51:38;17.87;;;10.63;;
61391;SDS011;47261;52.892;5.738;2023-08-06T06:54:04;16.88;;;10.13;;
61391;SDS011;47261;52.892;5.738;2023-08-06T06:56:29;15.77;;;9.57;;
61391;SDS011;47261;52.892;5.738;2023-08-06T06:58:55;16.98;;;10.68;;
61391;SDS011;47261;52.892;5.738;2023-08-06T07:01:21;20.33;;;10.83;;
61391;SDS011;47261;52.892;5.738;2023-08-06T07:03:46;14.65;;;9.85;;
61391;SDS011;47261;52.892;5.738;2023-08-06T07:06:12;14.97;;;9.93;;
61391;SDS011;47261;52.892;5.738;2023-08-06T07:08:38;16.50;;;10.48;;
61391;SDS011;47261;52.892;5.738;2023-08-06T07:11:04;16.10;;;10.50;;
61391;SDS011;47261;52.892;5.738;2023-08-06T07:13:31;16.40;;;10.82;;
61391;SDS011;47261;52.892;5.738;2023-08-06T07:15:58;15.35;;;9.82;;
61391;SDS011;47261;52.892;5.738;2023-08-06T07:18:23;16.23;;;9.87;;
61391;SDS011;47261;52.892;5.738;2023-08-06T07:20:50;16.33;;;10.55;;
61391;SDS011;47261;52.892;5.738;2023-08-06T07:23:16;17.05;;;10.15;;
61391;SDS011;47261;52.892;5.738;2023-08-06T07:25:42;19.33;;;11.15;;
61391;SDS011;47261;52.892;5.738;2023-08-06T07:28:08;17.23;;;11.17;;
61391;SDS011;47261;52.892;5.738;2023-08-06T07:30:37;21.25;;;11.90;;
61391;SDS011;47261;52.892;5.738;2023-08-06T07:33:03;17.95;;;11.48;;
61391;SDS011;47261;52.892;5.738;2023-08-06T07:35:29;16.20;;;10.80;;
61391;SDS011;47261;52.892;5.738;2023-08-06T07:37:55;22.60;;;11.48;;
61391;SDS011;47261;52.892;5.738;2023-08-06T07:40:20;16.03;;;10.83;;
61391;SDS011;47261;52.892;5.738;2023-08-06T07:42:46;17.67;;;11.05;;
61391;SDS011;47261;52.892;5.738;2023-08-06T07:45:12;16.93;;;11.07;;
61391;SDS011;47261;52.892;5.738;2023-08-06T07:47:37;16.53;;;10.63;;
61391;SDS011;47261;52.892;5.738;2023-08-06T07:50:03;17.43;;;10.60;;
61391;SDS011;47261;52.892;5.738;2023-08-06T07:52:29;21.25;;;10.25;;
61391;SDS011;47261;52.892;5.738;2023-08-06T07:54:54;14.57;;;9.90;;
61391;SDS011;47261;52.892;5.738;2023-08-06T07:57:20;16.88;;;10.65;;
61391;SDS011;47261;52.892;5.738;2023-08-06T07:59:46;15.77;;;10.10;;
61391;SDS011;47261;52.892;5.738;2023-08-06T08:02:11;15.47;;;10.30;;
61391;SDS011;47261;52.892;5.738;2023-08-06T08:04:37;14.75;;;9.32;;
61391;SDS011;47261;52.892;5.738;2023-08-06T08:07:03;13.60;;;8.97;;
61391;SDS011;47261;52.892;5.738;2023-08-06T08:09:29;15.23;;;9.10;;
61391;SDS011;47261;52.892;5.738;2023-08-06T08:11:54;12.90;;;8.75;;
61391;SDS011;47261;52.892;5.738;2023-08-06T08:14:20;14.23;;;9.83;;
61391;SDS011;47261;52.892;5.738;2023-08-06T08:16:46;14.45;;;9.18;;
61391;SDS011;47261;52.892;5.738;2023-08-06T08:19:11;14.30;;;8.50;;
61391;SDS011;47261;52.892;5.738;2023-08-06T08:21:37;14.80;;;8.60;;
61391;SDS011;47261;52.892;5.738;2023-08-06T08:24:03;14.45;;;8.90;;
61391;SDS011;47261;52.892;5.738;2023-08-06T08:26:29;13.63;;;8.77;;
61391;SDS011;47261;52.892;5.738;2023-08-06T08:28:55;14.10;;;9.07;;
61391;SDS011;47261;52.892;5.738;2023-08-06T08:31:22;16.50;;;9.23;;
61391;SDS011;47261;52.892;5.738;2023-08-06T08:33:47;12.50;;;8.47;;
61391;SDS011;47261;52.892;5.738;2023-08-06T08:36:13;13.60;;;8.45;;
61391;SDS011;47261;52.892;5.738;2023-08-06T08:38:38;13.17;;;8.30;;
61391;SDS011;47261;52.892;5.738;2023-08-06T08:41:04;15.60;;;7.88;;
61391;SDS011;47261;52.892;5.738;2023-08-06T08:43:30;15.27;;;7.70;;
61391;SDS011;47261;52.892;5.738;2023-08-06T08:45:57;14.60;;;8.20;;
61391;SDS011;47261;52.892;5.738;2023-08-06T08:48:26;12.50;;;7.88;;
61391;SDS011;47261;52.892;5.738;2023-08-06T08:50:52;14.15;;;7.85;;
61391;SDS011;47261;52.892;5.738;2023-08-06T08:53:18;17.07;;;8.27;;
61391;SDS011;47261;52.892;5.738;2023-08-06T08:55:49;15.43;;;8.57;;
61391;SDS011;47261;52.892;5.738;2023-08-06T08:58:15;15.13;;;8.88;;
61391;SDS011;47261;52.892;5.738;2023-08-06T09:00:41;13.60;;;9.10;;
61391;SDS011;47261;52.892;5.738;2023-08-06T09:03:07;16.33;;;8.48;;
61391;SDS011;47261;52.892;5.738;2023-08-06T09:05:33;13.50;;;8.70;;
61391;SDS011;47261;52.892;5.738;2023-08-06T09:08:02;18.83;;;9.57;;
61391;SDS011;47261;52.892;5.738;2023-08-06T09:10:29;14.43;;;8.55;;
61391;SDS011;47261;52.892;5.738;2023-08-06T09:12:56;14.52;;;9.15;;
61391;SDS011;47261;52.892;5.738;2023-08-06T09:15:24;15.73;;;9.38;;
61391;SDS011;47261;52.892;5.738;2023-08-06T09:17:51;12.57;;;8.57;;
61391;SDS011;47261;52.892;5.738;2023-08-06T09:20:20;13.38;;;9.07;;
61391;SDS011;47261;52.892;5.738;2023-08-06T09:22:46;17.02;;;9.50;;
61391;SDS011;47261;52.892;5.738;2023-08-06T09:25:22;14.05;;;7.90;;
61391;SDS011;47261;52.892;5.738;2023-08-06T09:27:52;14.03;;;8.67;;
61391;SDS011;47261;52.892;5.738;2023-08-06T09:30:30;17.13;;;9.43;;
61391;SDS011;47261;52.892;5.738;2023-08-06T09:32:57;13.48;;;9.32;;
61391;SDS011;47261;52.892;5.738;2023-08-06T09:35:23;15.18;;;8.20;;
61391;SDS011;47261;52.892;5.738;2023-08-06T09:37:48;11.63;;;8.30;;
61391;SDS011;47261;52.892;5.738;2023-08-06T09:40:23;14.77;;;8.53;;
61391;SDS011;47261;52.892;5.738;2023-08-06T09:42:49;14.57;;;9.57;;
61391;SDS011;47261;52.892;5.738;2023-08-06T09:45:16;11.63;;;7.70;;
61391;SDS011;47261;52.892;5.738;2023-08-06T09:47:41;14.57;;;8.20;;
61391;SDS011;47261;52.892;5.738;2023-08-06T09:50:17;13.07;;;7.60;;
61391;SDS011;47261;52.892;5.738;2023-08-06T09:52:44;13.23;;;7.85;;
61391;SDS011;47261;52.892;5.738;2023-08-06T09:55:10;15.35;;;8.13;;
61391;SDS011;47261;52.892;5.738;2023-08-06T09:57:38;14.07;;;8.07;;
61391;SDS011;47261;52.892;5.738;2023-08-06T10:00:08;11.98;;;7.53;;
61391;SDS011;47261;52.892;5.738;2023-08-06T10:02:39;10.57;;;7.28;;
61391;SDS011;47261;52.892;5.738;2023-08-06T10:05:06;11.43;;;7.40;;
61391;SDS011;47261;52.892;5.738;2023-08-06T10:07:35;10.80;;;7.80;;
61391;SDS011;47261;52.892;5.738;2023-08-06T10:10:01;9.67;;;6.67;;
61391;SDS011;47261;52.892;5.738;2023-08-06T10:12:28;11.13;;;6.78;;
61391;SDS011;47261;52.892;5.738;2023-08-06T10:14:58;11.73;;;7.10;;
61391;SDS011;47261;52.892;5.738;2023-08-06T10:17:26;12.20;;;6.30;;
61391;SDS011;47261;52.892;5.738;2023-08-06T10:19:53;9.57;;;4.60;;
61391;SDS011;47261;52.892;5.738;2023-08-06T10:22:22;10.23;;;5.50;;
61391;SDS011;47261;52.892;5.738;2023-08-06T10:29:48;7.57;;;4.33;;
61391;SDS011;47261;52.892;5.738;2023-08-06T10:32:17;9.05;;;4.47;;
61391;SDS011;47261;52.892;5.738;2023-08-06T10:34:52;7.30;;;4.43;;
61391;SDS011;47261;52.892;5.738;2023-08-06T10:37:34;7.10;;;3.85;;
61391;SDS011;47261;52.892;5.738;2023-08-06T10:40:01;8.27;;;3.83;;
61391;SDS011;47261;52.892;5.738;2023-08-06T10:42:28;6.80;;;3.53;;
61391;SDS011;47261;52.892;5.738;2023-08-06T10:47:40;8.00;;;3.75;;
61391;SDS011;47261;52.892;5.738;2023-08-06T10:50:07;8.10;;;3.67;;
61391;SDS011;47261;52.892;5.738;2023-08-06T10:52:36;7.28;;;2.95;;
61391;SDS011;47261;52.892;5.738;2023-08-06T10:55:01;5.80;;;3.00;;
61391;SDS011;47261;52.892;5.738;2023-08-06T10:57:27;7.72;;;2.88;;
61391;SDS011;47261;52.892;5.738;2023-08-06T10:59:53;5.77;;;2.90;;
61391;SDS011;47261;52.892;5.738;2023-08-06T11:02:18;7.60;;;2.65;;
61391;SDS011;47261;52.892;5.738;2023-08-06T11:04:44;5.43;;;3.03;;
61391;SDS011;47261;52.892;5.738;2023-08-06T11:07:10;6.07;;;2.47;;
61391;SDS011;47261;52.892;5.738;2023-08-06T11:09:35;4.77;;;2.60;;
61391;SDS011;47261;52.892;5.738;2023-08-06T11:12:02;7.05;;;2.63;;
61391;SDS011;47261;52.892;5.738;2023-08-06T11:14:31;5.03;;;2.55;;
61391;SDS011;47261;52.892;5.738;2023-08-06T11:16:57;4.63;;;2.30;;
61391;SDS011;47261;52.892;5.738;2023-08-06T11:19:23;4.97;;;2.15;;
61391;SDS011;47261;52.892;5.738;2023-08-06T11:21:51;5.85;;;2.60;;
61391;SDS011;47261;52.892;5.738;2023-08-06T11:24:17;5.47;;;2.00;;
61391;SDS011;47261;52.892;5.738;2023-08-06T11:26:42;5.90;;;1.80;;
61391;SDS011;47261;52.892;5.738;2023-08-06T11:29:09;4.43;;;1.80;;
61391;SDS011;47261;52.892;5.738;2023-08-06T11:31:35;5.00;;;1.77;;
61391;SDS011;47261;52.892;5.738;2023-08-06T11:34:01;4.90;;;1.90;;
61391;SDS011;47261;52.892;5.738;2023-08-06T11:36:31;6.55;;;2.05;;
61391;SDS011;47261;52.892;5.738;2023-08-06T11:39:00;3.85;;;1.67;;
61391;SDS011;47261;52.892;5.738;2023-08-06T11:41:28;5.53;;;1.60;;
61391;SDS011;47261;52.892;5.738;2023-08-06T11:43:54;7.35;;;2.40;;
61391;SDS011;47261;52.892;5.738;2023-08-06T11:46:20;4.95;;;2.38;;
61391;SDS011;47261;52.892;5.738;2023-08-06T11:48:54;6.27;;;3.40;;
61391;SDS011;47261;52.892;5.738;2023-08-06T11:51:24;5.78;;;3.00;;
61391;SDS011;47261;52.892;5.738;2023-08-06T11:53:55;6.90;;;3.22;;
61391;SDS011;47261;52.892;5.738;2023-08-06T11:56:22;6.38;;;3.05;;
61391;SDS011;47261;52.892;5.738;2023-08-06T11:58:48;5.43;;;3.13;;
61391;SDS011;47261;52.892;5.738;2023-08-06T12:01:13;6.03;;;2.20;;
61391;SDS011;47261;52.892;5.738;2023-08-06T12:03:39;7.97;;;2.17;;
61391;SDS011;47261;52.892;5.738;2023-08-06T12:06:05;8.10;;;2.60;;
61391;SDS011;47261;52.892;5.738;2023-08-06T12:08:32;7.07;;;2.80;;
61391;SDS011;47261;52.892;5.738;2023-08-06T12:10:58;6.60;;;3.20;;
61391;SDS011;47261;52.892;5.738;2023-08-06T12:13:24;6.35;;;3.22;;
61391;SDS011;47261;52.892;5.738;2023-08-06T12:15:50;6.27;;;3.07;;
61391;SDS011;47261;52.892;5.738;2023-08-06T12:18:18;9.25;;;3.10;;
61391;SDS011;47261;52.892;5.738;2023-08-06T12:20:44;7.68;;;3.65;;
61391;SDS011;47261;52.892;5.738;2023-08-06T12:23:09;7.47;;;3.70;;
61391;SDS011;47261;52.892;5.738;2023-08-06T12:25:35;9.87;;;4.30;;
61391;SDS011;47261;52.892;5.738;2023-08-06T12:28:01;6.90;;;3.72;;
61391;SDS011;47261;52.892;5.738;2023-08-06T12:30:26;8.03;;;3.87;;
61391;SDS011;47261;52.892;5.738;2023-08-06T12:32:52;9.50;;;4.07;;
61391;SDS011;47261;52.892;5.738;2023-08-06T12:35:18;6.60;;;3.22;;
61391;SDS011;47261;52.892;5.738;2023-08-06T12:37:45;9.10;;;4.25;;
61391;SDS011;47261;52.892;5.738;2023-08-06T12:40:10;8.77;;;3.60;;
61391;SDS011;47261;52.892;5.738;2023-08-06T12:42:36;10.53;;;4.27;;
61391;SDS011;47261;52.892;5.738;2023-08-06T12:45:02;10.20;;;4.47;;
61391;SDS011;47261;52.892;5.738;2023-08-06T12:47:27;7.10;;;3.83;;
61391;SDS011;47261;52.892;5.738;2023-08-06T12:49:53;8.77;;;4.13;;
61391;SDS011;47261;52.892;5.738;2023-08-06T12:52:19;7.97;;;4.03;;
61391;SDS011;47261;52.892;5.738;2023-08-06T12:54:45;9.03;;;5.03;;
61391;SDS011;47261;52.892;5.738;2023-08-06T12:57:11;11.40;;;5.15;;
61391;SDS011;47261;52.892;5.738;2023-08-06T12:59:37;10.63;;;5.32;;
61391;SDS011;47261;52.892;5.738;2023-08-06T13:02:03;8.40;;;4.33;;
61391;SDS011;47261;52.892;5.738;2023-08-06T13:04:29;10.80;;;5.00;;
61391;SDS011;47261;52.892;5.738;2023-08-06T13:06:55;12.32;;;5.97;;
61391;SDS011;47261;52.892;5.738;2023-08-06T13:09:21;9.00;;;4.50;;
61391;SDS011;47261;52.892;5.738;2023-08-06T13:11:46;7.15;;;4.18;;
61391;SDS011;47261;52.892;5.738;2023-08-06T13:14:15;7.63;;;3.80;;
61391;SDS011;47261;52.892;5.738;2023-08-06T13:16:42;8.93;;;4.50;;
61391;SDS011;47261;52.892;5.738;2023-08-06T13:19:08;7.50;;;4.00;;
61391;SDS011;47261;52.892;5.738;2023-08-06T13:21:59;7.65;;;3.42;;
61391;SDS011;47261;52.892;5.738;2023-08-06T13:24:25;5.45;;;2.83;;
61391;SDS011;47261;52.892;5.738;2023-08-06T13:26:52;7.30;;;2.50;;
61391;SDS011;47261;52.892;5.738;2023-08-06T13:29:18;6.47;;;3.20;;
61391;SDS011;47261;52.892;5.738;2023-08-06T13:31:43;8.07;;;4.27;;
61391;SDS011;47261;52.892;5.738;2023-08-06T13:34:09;9.00;;;4.55;;
61391;SDS011;47261;52.892;5.738;2023-08-06T13:36:35;8.47;;;4.57;;
61391;SDS011;47261;52.892;5.738;2023-08-06T13:39:00;8.60;;;4.00;;
61391;SDS011;47261;52.892;5.738;2023-08-06T13:41:26;7.50;;;3.33;;
61391;SDS011;47261;52.892;5.738;2023-08-06T13:43:51;8.50;;;3.63;;
61391;SDS011;47261;52.892;5.738;2023-08-06T13:46:17;9.63;;;3.83;;
61391;SDS011;47261;52.892;5.738;2023-08-06T13:48:45;7.78;;;3.63;;
61391;SDS011;47261;52.892;5.738;2023-08-06T13:51:13;7.95;;;3.47;;
61391;SDS011;47261;52.892;5.738;2023-08-06T13:53:39;7.93;;;2.90;;
61391;SDS011;47261;52.892;5.738;2023-08-06T13:56:05;7.22;;;2.53;;
61391;SDS011;47261;52.892;5.738;2023-08-06T13:58:31;4.90;;;2.28;;
61391;SDS011;47261;52.892;5.738;2023-08-06T14:00:57;7.68;;;2.40;;
61391;SDS011;47261;52.892;5.738;2023-08-06T14:03:23;6.90;;;2.87;;
61391;SDS011;47261;52.892;5.738;2023-08-06T14:05:49;7.57;;;2.85;;
61391;SDS011;47261;52.892;5.738;2023-08-06T14:08:15;7.72;;;2.80;;
61391;SDS011;47261;52.892;5.738;2023-08-06T14:10:43;5.00;;;2.50;;
61391;SDS011;47261;52.892;5.738;2023-08-06T14:13:09;6.30;;;2.53;;
61391;SDS011;47261;52.892;5.738;2023-08-06T14:15:35;6.10;;;2.53;;
61391;SDS011;47261;52.892;5.738;2023-08-06T14:18:01;7.40;;;3.10;;
61391;SDS011;47261;52.892;5.738;2023-08-06T14:20:27;6.05;;;2.95;;
61391;SDS011;47261;52.892;5.738;2023-08-06T14:22:53;6.07;;;2.72;;
61391;SDS011;47261;52.892;5.738;2023-08-06T14:25:19;7.90;;;2.70;;
61391;SDS011;47261;52.892;5.738;2023-08-06T14:27:45;7.00;;;2.78;;
61391;SDS011;47261;52.892;5.738;2023-08-06T14:30:11;7.18;;;2.22;;
61391;SDS011;47261;52.892;5.738;2023-08-06T14:32:36;7.73;;;2.57;;
61391;SDS011;47261;52.892;5.738;2023-08-06T14:35:02;7.03;;;2.85;;
61391;SDS011;47261;52.892;5.738;2023-08-06T14:37:28;7.00;;;2.55;;
61391;SDS011;47261;52.892;5.738;2023-08-06T14:39:54;7.77;;;2.33;;
61391;SDS011;47261;52.892;5.738;2023-08-06T14:42:19;4.77;;;2.00;;
61391;SDS011;47261;52.892;5.738;2023-08-06T14:44:45;3.65;;;1.58;;